createdAt,value
2022-11-27T00:02:34.000Z,101605.09
2022-11-27T00:07:35.000Z,101613.43
2022-11-27T00:12:34.000Z,101621.65
2022-11-27T00:17:35.000Z,101627.77
2022-11-27T00:22:34.000Z,101624.05
2022-11-27T00:27:35.000Z,101622.76
2022-11-27T00:32:34.000Z,101625.82
2022-11-27T00:37:35.000Z,101628.31
2022-11-27T00:42:34.000Z,101630.87
2022-11-27T00:47:35.000Z,101632.11
2022-11-27T00:52:34.000Z,101630
2022-11-27T01:02:34.000Z,101634.3
2022-11-27T01:07:35.000Z,101626.79
2022-11-27T01:12:34.000Z,101627.97
2022-11-27T01:17:34.000Z,101627.97
2022-11-27T01:22:34.000Z,101627.2
2022-11-27T01:27:34.000Z,101626.67
2022-11-27T01:32:34.000Z,101618.8
2022-11-27T01:37:34.000Z,101615.79
2022-11-27T01:42:35.000Z,101612.19
2022-11-27T01:47:35.000Z,101614.9
2022-11-27T01:52:34.000Z,101617.13
2022-11-27T01:57:35.000Z,101616.76
2022-11-27T02:02:35.000Z,101617.03
2022-11-27T02:07:34.000Z,101613.89
2022-11-27T02:12:35.000Z,101614.75
2022-11-27T02:17:35.000Z,101614.89
2022-11-27T02:22:35.000Z,101616.28
2022-11-27T02:27:35.000Z,101616.28
2022-11-27T02:32:35.000Z,101622.89
2022-11-27T02:37:35.000Z,101624.34
2022-11-27T02:42:35.000Z,101625.21
2022-11-27T02:47:35.000Z,101630.82
2022-11-27T02:52:35.000Z,101630.54
2022-11-27T02:57:34.000Z,101632.76
2022-11-27T03:02:34.000Z,101632.96
2022-11-27T03:07:34.000Z,101643.22
2022-11-27T03:12:34.000Z,101645.13
2022-11-27T03:17:34.000Z,101647.28
2022-11-27T03:22:34.000Z,101648.08
2022-11-27T03:27:35.000Z,101646.04
2022-11-27T03:32:35.000Z,101647.2
2022-11-27T03:37:35.000Z,101655.87
2022-11-27T03:42:34.000Z,101655.87
2022-11-27T03:47:35.000Z,101656.51
2022-11-27T03:52:34.000Z,101656.91
2022-11-27T03:57:34.000Z,101657.57
2022-11-27T04:02:34.000Z,101650.38
2022-11-27T04:07:34.000Z,101649.85
2022-11-27T04:12:35.000Z,101644.56
2022-11-27T04:17:35.000Z,101645.9
2022-11-27T04:22:35.000Z,101648.16
2022-11-27T04:27:35.000Z,101650.15
2022-11-27T04:32:35.000Z,101655.72
2022-11-27T04:37:34.000Z,101656.55
2022-11-27T04:42:35.000Z,101658.01
2022-11-27T04:47:35.000Z,101662.76
2022-11-27T04:52:35.000Z,101663.5
2022-11-27T04:57:35.000Z,101663.5
2022-11-27T05:02:35.000Z,101662.08
2022-11-27T05:07:35.000Z,101665.74
2022-11-27T05:12:34.000Z,101662.39
2022-11-27T05:17:35.000Z,101659.77
2022-11-27T05:22:35.000Z,101655.85
2022-11-27T05:27:35.000Z,101657.1
2022-11-27T05:32:34.000Z,101659.85
2022-11-27T05:37:35.000Z,101660.29
2022-11-27T05:42:35.000Z,101662.37
2022-11-27T05:47:35.000Z,101667.07
2022-11-27T05:52:35.000Z,101668.21
2022-11-27T05:57:35.000Z,101663.62
2022-11-27T06:02:39.000Z,101663.62
2022-11-27T06:07:34.000Z,101662.15
2022-11-27T06:12:35.000Z,101670.36
2022-11-27T06:17:35.000Z,101669.07
2022-11-27T06:22:34.000Z,101671.19
2022-11-27T06:27:35.000Z,101673.34
2022-11-27T06:32:35.000Z,101669.62
2022-11-27T06:37:35.000Z,101670.43
2022-11-27T06:47:35.000Z,101676.33
2022-11-27T06:52:35.000Z,101674.11
2022-11-27T06:57:35.000Z,101674.54
2022-11-27T07:02:34.000Z,101674.54
2022-11-27T07:07:34.000Z,101673.32
2022-11-27T07:12:34.000Z,101679.73
2022-11-27T07:17:34.000Z,101685.46
2022-11-27T07:22:34.000Z,101682.57
2022-11-27T07:27:35.000Z,101693.37
2022-11-27T07:32:35.000Z,101690.3
2022-11-27T07:37:35.000Z,101687.28
2022-11-27T07:42:48.000Z,101684.27
2022-11-27T07:47:35.000Z,101681.87
2022-11-27T07:52:34.000Z,101680.55
2022-11-27T07:57:34.000Z,101684.86
2022-11-27T08:02:35.000Z,101683.47
2022-11-27T08:07:35.000Z,101685.69
2022-11-27T08:12:35.000Z,101685.8
2022-11-27T08:17:34.000Z,101685.8
2022-11-27T08:22:34.000Z,101681.07
2022-11-27T08:27:34.000Z,101684.09
2022-11-27T08:32:34.000Z,101686.7
2022-11-27T08:37:34.000Z,101685.14
2022-11-27T08:42:35.000Z,101683.61
2022-11-27T08:47:35.000Z,101684.15
2022-11-27T08:52:34.000Z,101687.93
2022-11-27T08:57:35.000Z,101691.99
2022-11-27T09:02:35.000Z,101692.43
2022-11-27T09:07:34.000Z,101688.95
2022-11-27T09:12:35.000Z,101686.35
2022-11-27T09:17:35.000Z,101685.91
2022-11-27T09:22:35.000Z,101685.6
2022-11-27T09:27:34.000Z,101685.53
2022-11-27T09:32:34.000Z,101685.53
2022-11-27T09:37:34.000Z,101678.4
2022-11-27T09:42:35.000Z,101686.8
2022-11-27T09:47:35.000Z,101689.83
2022-11-27T09:52:34.000Z,101683.45
2022-11-27T09:57:35.000Z,101685.1
2022-11-27T10:02:35.000Z,101688.81
2022-11-27T10:07:34.000Z,101684.79
2022-11-27T10:17:34.000Z,101685.36
2022-11-27T10:22:34.000Z,101685.48
2022-11-27T10:27:34.000Z,101684.89
2022-11-27T10:33:03.000Z,101689.08
2022-11-27T10:37:34.000Z,101687.13
2022-11-27T10:42:35.000Z,101694.54
2022-11-27T10:47:38.000Z,101703.76
2022-11-27T10:52:35.000Z,101710.3
2022-11-27T10:57:35.000Z,101710.26
2022-11-27T11:02:35.000Z,101713.83
2022-11-27T11:07:35.000Z,101711.62
2022-11-27T11:12:35.000Z,101711.62
2022-11-27T11:22:34.000Z,101706.37
2022-11-27T11:27:34.000Z,101709.57
2022-11-27T11:32:34.000Z,101714.8
2022-11-27T11:37:35.000Z,101713.12
2022-11-27T11:42:35.000Z,101706.33
2022-11-27T11:47:35.000Z,101701.23
2022-11-27T11:52:34.000Z,101705.95
2022-11-27T11:57:35.000Z,101721.08
2022-11-27T12:02:35.000Z,101721.4
2022-11-27T12:07:34.000Z,101718.22
2022-11-27T12:12:34.000Z,101715.24
2022-11-27T12:17:35.000Z,101722.31
2022-11-27T12:22:35.000Z,101719.47
2022-11-27T12:27:35.000Z,101720.81
2022-11-27T12:32:35.000Z,101720.81
2022-11-27T12:37:35.000Z,101723.44
2022-11-27T12:42:35.000Z,101724
2022-11-27T12:47:35.000Z,101723.02
2022-11-27T12:52:35.000Z,101726.95
2022-11-27T12:57:35.000Z,101726.39
2022-11-27T13:02:35.000Z,101733.07
2022-11-27T13:07:35.000Z,101730.63
2022-11-27T13:12:34.000Z,101727.96
2022-11-27T13:17:35.000Z,101728.44
2022-11-27T13:22:34.000Z,101731.07
2022-11-27T13:27:34.000Z,101731.38
2022-11-27T13:32:35.000Z,101722.72
2022-11-27T13:37:34.000Z,101727.5
2022-11-27T13:42:34.000Z,101727.1
2022-11-27T13:47:35.000Z,101727.1
2022-11-27T13:52:34.000Z,101726.03
2022-11-27T13:57:34.000Z,101732.68
2022-11-27T14:02:34.000Z,101730.31
2022-11-27T14:07:35.000Z,101742.14
2022-11-27T14:12:35.000Z,101746.41
2022-11-27T14:17:34.000Z,101746.69
2022-11-27T14:22:34.000Z,101750.79
2022-11-27T14:27:34.000Z,101752.34
2022-11-27T14:32:35.000Z,101756.24
2022-11-27T14:37:35.000Z,101758.47
2022-11-27T14:42:39.000Z,101752.14
2022-11-27T14:47:35.000Z,101748.3
2022-11-27T14:52:34.000Z,101748.3
2022-11-27T14:57:35.000Z,101752.31
2022-11-27T15:02:39.000Z,101748.68
2022-11-27T15:07:34.000Z,101759.42
2022-11-27T15:12:35.000Z,101757.55
2022-11-27T15:17:34.000Z,101755.81
2022-11-27T15:22:34.000Z,101739.4
2022-11-27T15:27:35.000Z,101744.83
2022-11-27T15:32:34.000Z,101742.79
2022-11-27T15:37:35.000Z,101745.33
2022-11-27T15:42:35.000Z,101747.63
2022-11-27T15:47:35.000Z,101749.2
2022-11-27T15:52:35.000Z,101755.24
2022-11-27T15:57:35.000Z,101754.88
2022-11-27T16:02:35.000Z,101757.15
2022-11-27T16:07:35.000Z,101757.15
2022-11-27T16:12:35.000Z,101761.09
2022-11-27T16:17:35.000Z,101769.76
2022-11-27T16:22:34.000Z,101776.66
2022-11-27T16:27:35.000Z,101774.27
2022-11-27T16:32:35.000Z,101776.84
2022-11-27T16:37:34.000Z,101784.15
2022-11-27T16:42:34.000Z,101783.97
2022-11-27T16:47:42.000Z,101789.29
2022-11-27T16:52:34.000Z,101792.1
2022-11-27T16:57:35.000Z,101798.96
2022-11-27T17:02:35.000Z,101796.64
2022-11-27T17:07:34.000Z,101795.91
2022-11-27T17:12:35.000Z,101798.55
2022-11-27T17:17:35.000Z,101793.61
2022-11-27T17:22:35.000Z,101793.61
2022-11-27T17:27:35.000Z,101791.44
2022-11-27T17:32:35.000Z,101790.66
2022-11-27T17:37:35.000Z,101791.15
2022-11-27T17:42:34.000Z,101791.27
2022-11-27T17:47:35.000Z,101793.06
2022-11-27T17:52:34.000Z,101793.27
2022-11-27T17:57:34.000Z,101800.95
2022-11-27T18:02:35.000Z,101802.73
2022-11-27T18:07:35.000Z,101806.5
2022-11-27T18:12:34.000Z,101807.66
2022-11-27T18:17:34.000Z,101808.71
2022-11-27T18:22:35.000Z,101804.85
2022-11-27T18:27:35.000Z,101801.36
2022-11-27T18:32:35.000Z,101801.36
2022-11-27T18:37:35.000Z,101799.31
2022-11-27T18:52:34.000Z,101806.34
2022-11-27T18:57:35.000Z,101803.99
2022-11-27T19:02:35.000Z,101805.55
2022-11-27T19:07:34.000Z,101804.23
2022-11-27T19:12:35.000Z,101801.1
2022-11-27T19:17:42.000Z,101804.35
2022-11-27T19:22:34.000Z,101807.16
2022-11-27T19:27:34.000Z,101805
2022-11-27T19:32:34.000Z,101812.21
2022-11-27T19:37:44.000Z,101808.96
2022-11-27T19:47:34.000Z,101812.98
2022-11-27T19:52:35.000Z,101817.16
2022-11-27T19:57:35.000Z,101817.16
2022-11-27T20:02:35.000Z,101814.55
2022-11-27T20:07:34.000Z,101812.12
2022-11-27T20:12:35.000Z,101811.63
2022-11-27T20:17:35.000Z,101816.32
2022-11-27T20:22:35.000Z,101818.98
2022-11-27T20:27:34.000Z,101818.45
2022-11-27T20:32:35.000Z,101824.61
2022-11-27T20:37:34.000Z,101833.21
2022-11-27T20:42:35.000Z,101845.64
2022-11-27T20:47:35.000Z,101847.24
2022-11-27T20:52:34.000Z,101845.14
2022-11-27T20:57:34.000Z,101845.1
2022-11-27T21:02:35.000Z,101846.71
2022-11-27T21:07:34.000Z,101847.03
2022-11-27T21:12:35.000Z,101847.03
2022-11-27T21:17:35.000Z,101854.21
2022-11-27T21:22:34.000Z,101857.43
2022-11-27T21:27:34.000Z,101860.86
2022-11-27T21:32:34.000Z,101860.04
2022-11-27T21:37:35.000Z,101861.61
2022-11-27T21:42:34.000Z,101860.42
2022-11-27T21:47:35.000Z,101859.68
2022-11-27T21:52:34.000Z,101857.78
2022-11-27T21:57:35.000Z,101860.85
2022-11-27T22:02:35.000Z,101861.42
2022-11-27T22:07:35.000Z,101855.06
2022-11-27T22:12:35.000Z,101863.98
2022-11-27T22:17:35.000Z,101869.93
2022-11-27T22:22:35.000Z,101872.73
2022-11-27T22:27:34.000Z,101872.73
2022-11-27T22:32:35.000Z,101877.47
2022-11-27T22:37:34.000Z,101876.65
2022-11-27T22:42:35.000Z,101874.73
2022-11-27T22:47:34.000Z,101873.15
2022-11-27T22:52:34.000Z,101875.76
2022-11-27T22:57:35.000Z,101877.04
2022-11-27T23:02:35.000Z,101876.55
2022-11-27T23:07:35.000Z,101881.88
2022-11-27T23:17:34.000Z,101886.27
2022-11-27T23:22:35.000Z,101886.18
2022-11-27T23:27:34.000Z,101890.01
2022-11-27T23:32:35.000Z,101891.05
2022-11-27T23:37:35.000Z,101893.63
2022-11-27T23:42:35.000Z,101894.34
2022-11-27T23:47:34.000Z,101896.35
2022-11-27T23:52:35.000Z,101896.35
2022-11-27T23:57:35.000Z,101899.05
